createdAt,value
2023-04-09T00:01:11.430Z,7.10
2023-04-09T00:03:42.415Z,7.00
2023-04-09T00:06:15.146Z,7.10
2023-04-09T00:08:48.126Z,7.00
2023-04-09T00:11:18.198Z,6.90
2023-04-09T00:13:48.340Z,7.00
2023-04-09T00:16:18.380Z,7.20
2023-04-09T00:18:48.983Z,7.10
2023-04-09T00:21:19.288Z,7.10
2023-04-09T00:23:52.097Z,7.00
2023-04-09T00:26:24.414Z,6.80
2023-04-09T00:28:54.442Z,6.80
2023-04-09T00:31:24.518Z,6.80
2023-04-09T00:33:54.432Z,7.10
2023-04-09T00:36:26.663Z,7.20
2023-04-09T00:39:00.237Z,7.30
2023-04-09T00:41:30.306Z,7.30
2023-04-09T00:44:00.442Z,7.40
2023-04-09T00:46:30.526Z,7.50
2023-04-09T00:49:01.487Z,7.60
2023-04-09T00:51:31.712Z,7.60
2023-04-09T00:54:04.294Z,7.70
2023-04-09T00:56:34.648Z,7.70
2023-04-09T00:59:05.861Z,7.70
2023-04-09T01:01:36.391Z,7.60
2023-04-09T01:04:07.244Z,7.70
2023-04-09T01:06:45.962Z,7.70
2023-04-09T01:09:27.940Z,7.70
2023-04-09T01:12:09.169Z,7.70
2023-04-09T01:14:44.548Z,7.60
2023-04-09T01:17:22.057Z,7.50
2023-04-09T01:20:12.206Z,7.50
2023-04-09T01:23:00.658Z,7.40
2023-04-09T01:25:46.724Z,7.20
2023-04-09T01:28:22.510Z,7.10
2023-04-09T01:30:59.204Z,7.20
2023-04-09T01:33:32.585Z,7.30
2023-04-09T01:36:04.547Z,7.20
2023-04-09T01:38:36.563Z,7.10
2023-04-09T01:41:07.393Z,7.10
2023-04-09T01:43:41.260Z,7.20
2023-04-09T01:46:12.498Z,7.30
2023-04-09T01:48:43.059Z,7.30
2023-04-09T01:51:14.325Z,7.40
2023-04-09T01:53:45.042Z,7.40
2023-04-09T01:56:15.389Z,7.40
2023-04-09T01:58:48.391Z,7.30
2023-04-09T02:01:36.546Z,7.30
2023-04-09T02:04:12.956Z,7.30
2023-04-09T02:06:48.461Z,7.20
2023-04-09T02:09:21.587Z,7.20
2023-04-09T02:11:53.772Z,7.20
2023-04-09T02:14:28.935Z,7.20
2023-04-09T02:16:59.551Z,7.20
2023-04-09T02:19:42.309Z,7.20
2023-04-09T02:22:12.786Z,7.20
2023-04-09T02:24:43.497Z,7.20
2023-04-09T02:27:14.241Z,7.30
2023-04-09T02:29:47.765Z,7.40
2023-04-09T02:32:18.056Z,7.30
2023-04-09T02:34:48.755Z,7.30
2023-04-09T02:37:18.731Z,7.30
2023-04-09T02:39:50.724Z,7.30
2023-04-09T02:42:20.774Z,7.30
2023-04-09T02:44:53.428Z,7.20
2023-04-09T02:47:23.769Z,7.10
2023-04-09T02:49:53.805Z,7.10
2023-04-09T02:52:25.241Z,7.00
2023-04-09T02:54:55.770Z,7.00
2023-04-09T02:57:25.778Z,7.10
2023-04-09T02:59:58.606Z,7.10
2023-04-09T03:02:29.068Z,7.10
2023-04-09T03:04:59.200Z,7.10
2023-04-09T03:07:29.493Z,7.00
2023-04-09T03:09:59.836Z,7.10
2023-04-09T03:12:29.784Z,7.10
2023-04-09T03:15:02.513Z,7.10
2023-04-09T03:17:32.755Z,7.10
2023-04-09T03:20:02.755Z,7.10
2023-04-09T03:22:39.742Z,7.10
2023-04-09T03:25:22.096Z,7.10
2023-04-09T03:27:55.732Z,7.00
2023-04-09T03:30:48.630Z,6.90
2023-04-09T03:33:20.033Z,7.00
2023-04-09T03:36:04.281Z,7.00
2023-04-09T03:38:54.939Z,7.00
2023-04-09T03:41:30.355Z,7.00
2023-04-09T03:44:03.059Z,7.00
2023-04-09T03:46:42.443Z,6.90
2023-04-09T03:49:16.653Z,6.90
2023-04-09T03:51:47.956Z,6.90
2023-04-09T03:54:18.612Z,6.90
2023-04-09T03:56:49.540Z,6.80
2023-04-09T03:59:24.233Z,6.90
2023-04-09T04:01:57.601Z,6.80
2023-04-09T04:04:28.874Z,6.70
2023-04-09T04:07:01.212Z,6.70
2023-04-09T04:09:40.873Z,6.60
2023-04-09T04:12:15.383Z,6.60
2023-04-09T04:15:04.178Z,6.50
2023-04-09T04:17:59.504Z,6.40
2023-04-09T04:20:41.784Z,6.20
2023-04-09T04:23:15.904Z,6.10
2023-04-09T04:25:54.867Z,6.10
2023-04-09T04:28:31.895Z,6.00
2023-04-09T04:31:02.746Z,5.70
2023-04-09T04:33:38.691Z,5.70
2023-04-09T04:36:15.254Z,5.80
2023-04-09T04:38:50.816Z,5.80
2023-04-09T04:41:29.583Z,5.80
2023-04-09T04:44:11.207Z,5.60
2023-04-09T04:46:41.718Z,5.70
2023-04-09T04:49:14.306Z,5.60
2023-04-09T04:51:49.969Z,5.70
2023-04-09T04:54:20.759Z,5.70
2023-04-09T04:56:57.436Z,5.70
2023-04-09T04:59:41.880Z,5.90
2023-04-09T05:02:14.344Z,6.10
2023-04-09T05:05:05.687Z,6.30
2023-04-09T05:07:41.852Z,6.40
2023-04-09T05:10:13.424Z,6.40
2023-04-09T05:12:45.778Z,6.50
2023-04-09T05:15:22.869Z,6.60
2023-04-09T05:17:53.113Z,6.80
2023-04-09T05:20:26.023Z,6.90
2023-04-09T05:23:06.321Z,7.00
2023-04-09T05:25:42.740Z,7.10
2023-04-09T05:28:21.038Z,7.30
2023-04-09T05:30:56.341Z,7.40
2023-04-09T05:33:26.768Z,7.60
2023-04-09T05:35:59.653Z,7.70
2023-04-09T05:38:30.037Z,8.10
2023-04-09T05:41:02.374Z,8.80
2023-04-09T05:43:32.903Z,9.50
2023-04-09T05:46:03.078Z,10.40
2023-04-09T05:48:33.178Z,11.60
2023-04-09T05:51:07.610Z,13.00
2023-04-09T05:53:37.723Z,14.30
2023-04-09T05:56:16.378Z,15.40
2023-04-09T05:58:55.784Z,15.30
2023-04-09T06:01:26.046Z,15.40
2023-04-09T06:03:58.433Z,15.50
2023-04-09T06:06:34.537Z,15.40
2023-04-09T06:09:05.003Z,15.30
2023-04-09T06:11:35.633Z,15.40
2023-04-09T06:14:05.812Z,15.90
2023-04-09T06:16:36.684Z,16.20
2023-04-09T06:19:06.749Z,16.40
2023-04-09T06:21:40.813Z,16.70
2023-04-09T06:24:10.850Z,16.60
2023-04-09T06:26:40.961Z,16.00
2023-04-09T06:29:10.993Z,16.00
2023-04-09T06:31:41.141Z,16.30
2023-04-09T06:34:11.343Z,16.30
2023-04-09T06:36:44.700Z,16.30
2023-04-09T06:39:14.826Z,16.40
2023-04-09T06:41:44.925Z,17.00
2023-04-09T06:44:27.259Z,17.40
2023-04-09T06:46:57.269Z,17.90
2023-04-09T06:49:27.376Z,18.20
2023-04-09T06:52:00.075Z,18.40
2023-04-09T06:54:30.201Z,18.70
2023-04-09T06:57:00.181Z,19.00
2023-04-09T06:59:30.276Z,19.30
2023-04-09T07:02:00.761Z,19.20
2023-04-09T07:04:31.140Z,19.10
2023-04-09T07:07:03.964Z,18.80
2023-04-09T07:09:34.273Z,18.50
2023-04-09T07:12:04.648Z,18.80
2023-04-09T07:14:34.701Z,19.20
2023-04-09T07:17:05.018Z,19.90
2023-04-09T07:19:35.030Z,19.90
2023-04-09T07:22:09.878Z,20.10
2023-04-09T07:24:39.814Z,19.90
2023-04-09T07:27:10.889Z,18.50
2023-04-09T07:29:41.547Z,17.60
2023-04-09T07:32:11.744Z,17.60
2023-04-09T07:34:43.874Z,16.70
2023-04-09T07:37:17.044Z,17.00
2023-04-09T07:39:47.705Z,17.50
2023-04-09T07:42:18.154Z,16.40
2023-04-09T07:44:48.191Z,15.70
2023-04-09T07:47:18.544Z,16.00
2023-04-09T07:49:48.627Z,16.20
2023-04-09T07:52:21.311Z,17.20
2023-04-09T07:54:51.373Z,17.40
2023-04-09T07:57:21.309Z,17.50
2023-04-09T07:59:51.372Z,17.60
2023-04-09T08:02:22.177Z,17.90
2023-04-09T08:04:52.439Z,18.60
2023-04-09T08:07:25.516Z,20.00
2023-04-09T08:09:55.651Z,19.00
2023-04-09T08:12:26.058Z,19.90
2023-04-09T08:14:56.281Z,19.20
2023-04-09T08:17:26.553Z,19.40
2023-04-09T08:19:56.916Z,19.40
2023-04-09T08:22:29.478Z,17.90
2023-04-09T08:25:01.416Z,18.40
2023-04-09T08:27:33.509Z,18.70
2023-04-09T08:30:04.005Z,19.20
2023-04-09T08:32:34.327Z,19.90
2023-04-09T08:35:04.349Z,21.40
2023-04-09T08:37:36.954Z,20.80
2023-04-09T08:40:07.927Z,20.50
2023-04-09T08:42:39.809Z,19.30
2023-04-09T08:45:11.846Z,19.10
2023-04-09T08:47:44.649Z,19.40
2023-04-09T08:50:14.678Z,18.40
2023-04-09T08:52:50.366Z,18.70
2023-04-09T08:55:20.397Z,19.40
2023-04-09T08:57:50.423Z,19.10
2023-04-09T09:00:20.514Z,18.60
2023-04-09T09:03:07.281Z,18.50
2023-04-09T09:05:42.171Z,19.80
2023-04-09T09:08:16.840Z,19.80
2023-04-09T09:10:48.452Z,19.60
2023-04-09T09:13:25.714Z,20.30
2023-04-09T09:15:57.230Z,20.50
2023-04-09T09:18:42.244Z,22.20
2023-04-09T09:21:15.888Z,20.60
2023-04-09T09:23:51.311Z,19.70
2023-04-09T09:26:23.407Z,19.30
2023-04-09T09:28:55.025Z,19.70
2023-04-09T09:31:26.413Z,20.20
2023-04-09T09:33:57.225Z,20.30
2023-04-09T09:36:37.754Z,19.00
2023-04-09T09:39:13.166Z,19.30
2023-04-09T09:41:44.122Z,19.10
2023-04-09T09:44:35.688Z,20.40
2023-04-09T09:47:06.976Z,21.10
2023-04-09T09:49:37.239Z,21.90
2023-04-09T09:52:12.251Z,20.70
2023-04-09T09:54:46.425Z,20.20
2023-04-09T09:57:19.342Z,21.40
2023-04-09T09:59:56.907Z,21.50
2023-04-09T10:02:31.727Z,18.20
2023-04-09T10:05:04.438Z,16.90
2023-04-09T10:07:36.660Z,16.80
2023-04-09T10:10:13.908Z,17.30
2023-04-09T10:12:45.520Z,19.50
2023-04-09T10:15:16.081Z,20.90
2023-04-09T10:17:48.982Z,21.90
2023-04-09T10:20:22.738Z,19.80
2023-04-09T10:22:55.817Z,19.00
2023-04-09T10:25:29.655Z,19.70
2023-04-09T10:28:03.233Z,19.00
2023-04-09T10:30:37.553Z,20.50
2023-04-09T10:33:14.681Z,23.50
2023-04-09T10:35:45.430Z,25.60
2023-04-09T10:38:17.942Z,23.60
2023-04-09T10:40:54.845Z,22.90
2023-04-09T10:43:25.546Z,19.80
2023-04-09T10:45:55.902Z,18.40
2023-04-09T10:48:27.138Z,17.90
2023-04-09T10:50:58.433Z,17.70
2023-04-09T10:53:31.313Z,16.40
2023-04-09T10:56:04.319Z,16.10
2023-04-09T10:58:34.892Z,16.00
2023-04-09T11:01:05.536Z,15.90
2023-04-09T11:03:46.197Z,15.80
2023-04-09T11:06:18.809Z,15.60
2023-04-09T11:08:48.800Z,15.60
2023-04-09T11:11:21.862Z,17.50
2023-04-09T11:13:52.242Z,18.80
2023-04-09T11:16:24.310Z,18.00
2023-04-09T11:18:56.388Z,17.50
2023-04-09T11:21:31.876Z,17.40
2023-04-09T11:24:02.201Z,17.20
2023-04-09T11:26:40.570Z,17.00
2023-04-09T11:29:11.242Z,17.50
2023-04-09T11:31:41.284Z,18.40
2023-04-09T11:34:14.255Z,18.20
2023-04-09T11:36:44.273Z,17.10
2023-04-09T11:39:14.788Z,17.50
2023-04-09T11:41:48.071Z,20.20
2023-04-09T11:44:18.385Z,21.50
2023-04-09T11:46:49.375Z,21.10
2023-04-09T11:49:20.358Z,20.30
2023-04-09T11:51:51.049Z,20.70
2023-04-09T11:54:21.276Z,21.30
2023-04-09T11:56:56.519Z,21.70
2023-04-09T11:59:26.852Z,21.90
2023-04-09T12:01:57.099Z,21.70
2023-04-09T12:04:27.697Z,22.30
2023-04-09T12:07:02.043Z,22.80
2023-04-09T12:09:33.805Z,24.20
2023-04-09T12:12:11.913Z,25.00
2023-04-09T12:14:49.095Z,25.20
2023-04-09T12:17:18.983Z,26.00
2023-04-09T12:19:51.691Z,24.30
2023-04-09T12:22:21.645Z,22.90
2023-04-09T12:24:52.064Z,20.40
2023-04-09T12:27:24.893Z,18.60
2023-04-09T12:29:54.919Z,18.40
2023-04-09T12:32:24.992Z,19.60
2023-04-09T12:34:55.200Z,20.40
2023-04-09T12:37:25.597Z,19.90
2023-04-09T12:39:55.662Z,18.90
2023-04-09T12:42:28.292Z,18.00
2023-04-09T12:44:58.658Z,17.70
2023-04-09T12:47:29.184Z,17.40
2023-04-09T12:49:59.324Z,16.70
2023-04-09T12:52:29.383Z,16.60
2023-04-09T12:54:59.569Z,16.30
2023-04-09T12:57:32.485Z,15.70
2023-04-09T13:00:04.996Z,15.30
2023-04-09T13:02:35.074Z,15.10
2023-04-09T13:05:05.680Z,14.90
2023-04-09T13:07:36.007Z,14.70
2023-04-09T13:10:06.658Z,15.30
2023-04-09T13:12:39.417Z,16.70
2023-04-09T13:15:10.611Z,18.90
2023-04-09T13:17:43.883Z,21.00
2023-04-09T13:20:14.863Z,19.90
2023-04-09T13:22:49.163Z,17.90
2023-04-09T13:25:19.639Z,17.40
2023-04-09T13:27:52.306Z,16.80
2023-04-09T13:30:22.888Z,17.00
2023-04-09T13:32:53.299Z,18.10
2023-04-09T13:35:23.859Z,18.60
2023-04-09T13:37:53.824Z,19.10
2023-04-09T13:40:24.008Z,19.90
2023-04-09T13:42:56.927Z,20.70
2023-04-09T13:45:27.647Z,21.20
2023-04-09T13:47:57.885Z,20.90
2023-04-09T13:50:28.349Z,19.90
2023-04-09T13:52:58.622Z,19.70
2023-04-09T13:55:28.956Z,19.60
2023-04-09T13:58:01.856Z,20.30
2023-04-09T14:00:32.431Z,20.80
2023-04-09T14:03:03.408Z,21.20
2023-04-09T14:05:33.406Z,21.40
2023-04-09T14:08:04.008Z,21.00
2023-04-09T14:10:34.136Z,22.10
2023-04-09T14:13:10.632Z,21.10
2023-04-09T14:15:42.202Z,21.50
2023-04-09T14:18:12.259Z,21.90
2023-04-09T14:20:42.453Z,21.60
2023-04-09T14:23:13.005Z,21.70
2023-04-09T14:25:43.034Z,21.60
2023-04-09T14:28:15.977Z,20.30
2023-04-09T14:30:46.560Z,19.60
2023-04-09T14:33:16.495Z,18.80
2023-04-09T14:35:46.690Z,18.40
2023-04-09T14:38:17.974Z,17.80
2023-04-09T14:40:48.238Z,17.40
2023-04-09T14:43:21.446Z,16.90
2023-04-09T14:45:52.060Z,17.00
2023-04-09T14:48:22.357Z,16.90
2023-04-09T14:50:52.677Z,17.00
2023-04-09T14:53:22.788Z,17.10
2023-04-09T14:55:52.805Z,17.80
2023-04-09T14:58:25.796Z,18.60
2023-04-09T15:00:57.611Z,19.00
2023-04-09T15:03:32.061Z,19.50
2023-04-09T15:06:02.399Z,20.20
2023-04-09T15:08:32.423Z,19.70
2023-04-09T15:11:02.554Z,19.20
2023-04-09T15:13:35.807Z,18.90
2023-04-09T15:16:06.188Z,18.00
2023-04-09T15:18:37.687Z,17.70
2023-04-09T15:21:08.890Z,18.00
2023-04-09T15:23:39.778Z,18.60
2023-04-09T15:26:10.058Z,18.90
2023-04-09T15:28:42.774Z,18.70
2023-04-09T15:31:12.970Z,18.10
2023-04-09T15:33:45.872Z,18.80
2023-04-09T15:36:15.885Z,19.60
2023-04-09T15:38:46.001Z,20.20
2023-04-09T15:41:17.174Z,20.10
2023-04-09T15:43:49.784Z,19.50
2023-04-09T15:46:20.072Z,18.70
2023-04-09T15:48:50.529Z,18.60
2023-04-09T15:51:20.652Z,18.10
2023-04-09T15:53:50.768Z,17.60
2023-04-09T15:56:21.350Z,17.10
2023-04-09T15:58:54.440Z,17.20
2023-04-09T16:01:24.675Z,17.30
2023-04-09T16:03:55.843Z,17.70
2023-04-09T16:06:26.374Z,17.70
2023-04-09T16:08:56.988Z,17.60
2023-04-09T16:11:26.932Z,17.60
2023-04-09T16:13:59.909Z,17.60
2023-04-09T16:16:30.059Z,17.60
2023-04-09T16:19:01.190Z,17.90
2023-04-09T16:21:31.291Z,18.00
2023-04-09T16:24:01.456Z,17.90
2023-04-09T16:26:31.703Z,18.10
2023-04-09T16:29:04.722Z,17.70
2023-04-09T16:31:35.251Z,17.30
2023-04-09T16:34:05.660Z,16.90
2023-04-09T16:36:37.908Z,16.70
2023-04-09T16:39:08.285Z,16.70
2023-04-09T16:41:38.472Z,16.70
2023-04-09T16:44:11.129Z,16.60
2023-04-09T16:46:41.256Z,16.40
2023-04-09T16:49:11.223Z,16.20
2023-04-09T16:51:41.289Z,16.50
2023-04-09T16:54:11.432Z,16.50
2023-04-09T16:56:41.968Z,16.50
2023-04-09T16:59:18.105Z,16.80
2023-04-09T17:01:49.377Z,16.20
2023-04-09T17:04:19.933Z,15.70
2023-04-09T17:06:50.084Z,15.50
2023-04-09T17:09:20.341Z,15.20
2023-04-09T17:11:53.128Z,14.80
2023-04-09T17:14:27.666Z,14.50
2023-04-09T17:16:57.622Z,14.40
2023-04-09T17:19:28.019Z,13.90
2023-04-09T17:21:58.544Z,13.60
2023-04-09T17:24:29.259Z,13.20
2023-04-09T17:27:00.102Z,12.90
2023-04-09T17:29:33.302Z,12.60
2023-04-09T17:32:03.272Z,12.40
2023-04-09T17:34:33.627Z,12.30
2023-04-09T17:37:03.671Z,12.10
2023-04-09T17:39:34.343Z,12.00
2023-04-09T17:42:05.148Z,11.90
2023-04-09T17:44:38.602Z,11.80
2023-04-09T17:47:09.649Z,11.70
2023-04-09T17:49:39.763Z,11.50
2023-04-09T17:52:09.760Z,11.30
2023-04-09T17:54:40.280Z,11.20
2023-04-09T17:57:11.000Z,11.20
2023-04-09T17:59:43.882Z,11.10
2023-04-09T18:02:14.308Z,10.90
2023-04-09T18:04:44.911Z,10.80
2023-04-09T18:07:15.082Z,10.60
2023-04-09T18:09:45.638Z,10.50
2023-04-09T18:12:16.202Z,10.40
2023-04-09T18:14:50.515Z,10.30
2023-04-09T18:17:20.781Z,10.30
2023-04-09T18:19:51.291Z,10.20
2023-04-09T18:22:21.438Z,10.20
2023-04-09T18:24:52.354Z,10.20
2023-04-09T18:27:22.643Z,10.00
2023-04-09T18:29:56.072Z,9.80
2023-04-09T18:32:27.162Z,9.70
2023-04-09T18:34:57.593Z,9.60
2023-04-09T18:37:28.134Z,9.50
2023-04-09T18:40:00.217Z,9.40
2023-04-09T18:42:31.919Z,9.40
2023-04-09T18:45:04.760Z,9.30
2023-04-09T18:47:34.988Z,9.20
2023-04-09T18:50:05.464Z,9.00
2023-04-09T18:52:38.672Z,8.80
2023-04-09T18:55:09.957Z,8.70
2023-04-09T18:57:40.103Z,8.50
2023-04-09T19:00:15.096Z,8.40
2023-04-09T19:02:45.654Z,8.30
2023-04-09T19:05:16.024Z,8.20
2023-04-09T19:07:46.363Z,8.10
2023-04-09T19:10:16.595Z,8.10
2023-04-09T19:12:51.106Z,7.90
2023-04-09T19:15:26.266Z,7.70
2023-04-09T19:17:56.689Z,7.70
2023-04-09T19:20:27.371Z,7.60
2023-04-09T19:22:58.559Z,7.40
2023-04-09T19:25:28.928Z,7.20
2023-04-09T19:27:59.071Z,7.30
2023-04-09T19:30:32.139Z,7.30
2023-04-09T19:33:02.428Z,7.30
